sensor_id;sensor_type;location;lat;lon;timestamp;P1;durP1;ratioP1;P2;durP2;ratioP2
12878;SDS011;20617;49.476;10.986;2023-07-09T00:00:10;9.07;;;6.57;;
12878;SDS011;20617;49.476;10.986;2023-07-09T00:02:19;8.73;;;6.47;;
12878;SDS011;20617;49.476;10.986;2023-07-09T00:04:25;8.27;;;6.93;;
12878;SDS011;20617;49.476;10.986;2023-07-09T00:06:30;9.25;;;7.13;;
12878;SDS011;20617;49.476;10.986;2023-07-09T00:08:36;8.95;;;6.97;;
12878;SDS011;20617;49.476;10.986;2023-07-09T00:10:48;8.73;;;6.80;;
12878;SDS011;20617;49.476;10.986;2023-07-09T00:12:53;10.98;;;7.18;;
12878;SDS011;20617;49.476;10.986;2023-07-09T00:15:01;10.60;;;7.57;;
12878;SDS011;20617;49.476;10.986;2023-07-09T00:17:07;9.13;;;7.05;;
12878;SDS011;20617;49.476;10.986;2023-07-09T00:19:15;7.10;;;6.32;;
12878;SDS011;20617;49.476;10.986;2023-07-09T00:21:22;8.88;;;6.97;;
12878;SDS011;20617;49.476;10.986;2023-07-09T00:23:28;8.10;;;7.05;;
12878;SDS011;20617;49.476;10.986;2023-07-09T00:25:36;8.25;;;7.15;;
12878;SDS011;20617;49.476;10.986;2023-07-09T00:27:48;10.23;;;7.40;;
12878;SDS011;20617;49.476;10.986;2023-07-09T00:29:53;9.65;;;7.22;;
12878;SDS011;20617;49.476;10.986;2023-07-09T00:32:01;8.05;;;7.25;;
12878;SDS011;20617;49.476;10.986;2023-07-09T00:36:15;9.30;;;7.13;;
12878;SDS011;20617;49.476;10.986;2023-07-09T00:38:23;7.78;;;6.90;;
12878;SDS011;20617;49.476;10.986;2023-07-09T00:40:28;7.50;;;6.70;;
12878;SDS011;20617;49.476;10.986;2023-07-09T00:42:33;9.70;;;6.90;;
12878;SDS011;20617;49.476;10.986;2023-07-09T00:44:41;9.63;;;6.95;;
12878;SDS011;20617;49.476;10.986;2023-07-09T00:49:26;8.43;;;7.22;;
12878;SDS011;20617;49.476;10.986;2023-07-09T00:51:32;9.77;;;7.25;;
12878;SDS011;20617;49.476;10.986;2023-07-09T00:53:44;8.18;;;7.32;;
12878;SDS011;20617;49.476;10.986;2023-07-09T00:55:52;8.80;;;7.10;;
12878;SDS011;20617;49.476;10.986;2023-07-09T00:58:07;8.90;;;6.68;;
12878;SDS011;20617;49.476;10.986;2023-07-09T01:00:21;7.45;;;6.45;;
12878;SDS011;20617;49.476;10.986;2023-07-09T01:02:27;8.10;;;7.28;;
12878;SDS011;20617;49.476;10.986;2023-07-09T01:04:32;7.18;;;6.18;;
12878;SDS011;20617;49.476;10.986;2023-07-09T01:06:39;8.13;;;6.72;;
12878;SDS011;20617;49.476;10.986;2023-07-09T01:08:48;10.05;;;6.90;;
12878;SDS011;20617;49.476;10.986;2023-07-09T01:10:56;10.63;;;6.78;;
12878;SDS011;20617;49.476;10.986;2023-07-09T01:13:01;7.55;;;6.40;;
12878;SDS011;20617;49.476;10.986;2023-07-09T01:15:07;9.52;;;6.90;;
12878;SDS011;20617;49.476;10.986;2023-07-09T01:17:16;9.75;;;7.28;;
12878;SDS011;20617;49.476;10.986;2023-07-09T01:19:22;7.68;;;6.53;;
12878;SDS011;20617;49.476;10.986;2023-07-09T01:21:32;9.00;;;6.82;;
12878;SDS011;20617;49.476;10.986;2023-07-09T01:23:38;10.40;;;7.80;;
12878;SDS011;20617;49.476;10.986;2023-07-09T01:25:45;7.50;;;6.50;;
12878;SDS011;20617;49.476;10.986;2023-07-09T01:27:54;8.13;;;6.97;;
12878;SDS011;20617;49.476;10.986;2023-07-09T01:30:00;7.38;;;5.85;;
12878;SDS011;20617;49.476;10.986;2023-07-09T01:32:08;16.42;;;6.90;;
12878;SDS011;20617;49.476;10.986;2023-07-09T01:34:14;8.40;;;6.95;;
12878;SDS011;20617;49.476;10.986;2023-07-09T01:36:21;8.15;;;6.93;;
12878;SDS011;20617;49.476;10.986;2023-07-09T01:38:29;10.13;;;6.43;;
12878;SDS011;20617;49.476;10.986;2023-07-09T01:40:32;9.27;;;7.20;;
12878;SDS011;20617;49.476;10.986;2023-07-09T01:42:40;8.65;;;7.10;;
12878;SDS011;20617;49.476;10.986;2023-07-09T01:44:45;8.50;;;7.13;;
12878;SDS011;20617;49.476;10.986;2023-07-09T01:46:50;9.52;;;7.18;;
12878;SDS011;20617;49.476;10.986;2023-07-09T01:48:55;7.57;;;6.47;;
12878;SDS011;20617;49.476;10.986;2023-07-09T01:51:01;8.38;;;6.65;;
12878;SDS011;20617;49.476;10.986;2023-07-09T01:53:06;8.68;;;6.82;;
12878;SDS011;20617;49.476;10.986;2023-07-09T01:55:18;8.93;;;6.80;;
12878;SDS011;20617;49.476;10.986;2023-07-09T01:57:26;6.95;;;6.25;;
12878;SDS011;20617;49.476;10.986;2023-07-09T01:59:35;6.80;;;6.10;;
12878;SDS011;20617;49.476;10.986;2023-07-09T02:01:43;9.10;;;6.80;;
12878;SDS011;20617;49.476;10.986;2023-07-09T02:03:47;10.55;;;7.57;;
12878;SDS011;20617;49.476;10.986;2023-07-09T02:07:59;9.00;;;7.60;;
12878;SDS011;20617;49.476;10.986;2023-07-09T02:10:01;8.85;;;6.70;;
12878;SDS011;20617;49.476;10.986;2023-07-09T02:12:11;8.32;;;7.28;;
12878;SDS011;20617;49.476;10.986;2023-07-09T02:14:16;8.50;;;7.15;;
12878;SDS011;20617;49.476;10.986;2023-07-09T02:16:19;7.93;;;6.60;;
12878;SDS011;20617;49.476;10.986;2023-07-09T02:18:25;8.15;;;6.53;;
12878;SDS011;20617;49.476;10.986;2023-07-09T02:20:30;8.48;;;6.75;;
12878;SDS011;20617;49.476;10.986;2023-07-09T02:22:35;8.90;;;7.57;;
12878;SDS011;20617;49.476;10.986;2023-07-09T02:24:40;7.85;;;6.82;;
12878;SDS011;20617;49.476;10.986;2023-07-09T02:26:46;8.63;;;6.85;;
12878;SDS011;20617;49.476;10.986;2023-07-09T02:30:59;10.75;;;7.10;;
12878;SDS011;20617;49.476;10.986;2023-07-09T02:33:05;14.55;;;7.38;;
12878;SDS011;20617;49.476;10.986;2023-07-09T02:37:18;8.18;;;6.07;;
12878;SDS011;20617;49.476;10.986;2023-07-09T02:39:24;8.13;;;6.20;;
12878;SDS011;20617;49.476;10.986;2023-07-09T02:41:33;8.40;;;6.43;;
12878;SDS011;20617;49.476;10.986;2023-07-09T02:43:36;7.78;;;6.60;;
12878;SDS011;20617;49.476;10.986;2023-07-09T02:45:44;7.60;;;6.65;;
12878;SDS011;20617;49.476;10.986;2023-07-09T02:47:49;7.28;;;6.25;;
12878;SDS011;20617;49.476;10.986;2023-07-09T02:49:55;8.90;;;6.40;;
12878;SDS011;20617;49.476;10.986;2023-07-09T02:52:04;8.90;;;6.80;;
12878;SDS011;20617;49.476;10.986;2023-07-09T02:54:07;8.52;;;6.78;;
12878;SDS011;20617;49.476;10.986;2023-07-09T02:56:13;9.68;;;6.72;;
12878;SDS011;20617;49.476;10.986;2023-07-09T03:00:25;9.25;;;7.07;;
12878;SDS011;20617;49.476;10.986;2023-07-09T03:02:34;9.50;;;6.57;;
12878;SDS011;20617;49.476;10.986;2023-07-09T03:04:39;11.05;;;6.72;;
12878;SDS011;20617;49.476;10.986;2023-07-09T03:08:49;7.68;;;6.72;;
12878;SDS011;20617;49.476;10.986;2023-07-09T03:10:53;7.55;;;6.38;;
12878;SDS011;20617;49.476;10.986;2023-07-09T03:12:58;9.75;;;6.68;;
12878;SDS011;20617;49.476;10.986;2023-07-09T03:15:04;7.82;;;6.70;;
12878;SDS011;20617;49.476;10.986;2023-07-09T03:17:11;10.52;;;7.80;;
12878;SDS011;20617;49.476;10.986;2023-07-09T03:19:18;9.63;;;7.60;;
12878;SDS011;20617;49.476;10.986;2023-07-09T03:21:24;8.32;;;6.72;;
12878;SDS011;20617;49.476;10.986;2023-07-09T03:23:27;9.48;;;7.30;;
12878;SDS011;20617;49.476;10.986;2023-07-09T03:27:37;7.15;;;6.30;;
12878;SDS011;20617;49.476;10.986;2023-07-09T03:29:42;8.02;;;6.50;;
12878;SDS011;20617;49.476;10.986;2023-07-09T03:31:47;8.32;;;6.75;;
12878;SDS011;20617;49.476;10.986;2023-07-09T03:35:57;7.82;;;6.53;;
12878;SDS011;20617;49.476;10.986;2023-07-09T03:38:03;7.97;;;6.68;;
12878;SDS011;20617;49.476;10.986;2023-07-09T03:42:14;8.25;;;6.93;;
12878;SDS011;20617;49.476;10.986;2023-07-09T03:44:19;9.65;;;7.32;;
12878;SDS011;20617;49.476;10.986;2023-07-09T03:46:24;7.85;;;6.57;;
12878;SDS011;20617;49.476;10.986;2023-07-09T03:48:31;8.02;;;7.05;;
12878;SDS011;20617;49.476;10.986;2023-07-09T03:52:41;11.98;;;7.25;;
12878;SDS011;20617;49.476;10.986;2023-07-09T03:54:46;10.23;;;7.10;;
12878;SDS011;20617;49.476;10.986;2023-07-09T03:58:57;9.68;;;7.60;;
12878;SDS011;20617;49.476;10.986;2023-07-09T04:01:02;10.13;;;6.90;;
12878;SDS011;20617;49.476;10.986;2023-07-09T04:03:07;8.30;;;6.85;;
12878;SDS011;20617;49.476;10.986;2023-07-09T04:05:13;7.10;;;6.40;;
12878;SDS011;20617;49.476;10.986;2023-07-09T04:07:19;8.93;;;6.93;;
12878;SDS011;20617;49.476;10.986;2023-07-09T04:09:30;8.05;;;6.78;;
12878;SDS011;20617;49.476;10.986;2023-07-09T04:11:35;9.60;;;6.40;;
12878;SDS011;20617;49.476;10.986;2023-07-09T04:13:40;8.50;;;6.93;;
12878;SDS011;20617;49.476;10.986;2023-07-09T04:17:49;12.13;;;7.10;;
12878;SDS011;20617;49.476;10.986;2023-07-09T04:21:59;8.52;;;6.43;;
12878;SDS011;20617;49.476;10.986;2023-07-09T04:24:05;8.38;;;7.00;;
12878;SDS011;20617;49.476;10.986;2023-07-09T04:26:13;8.35;;;6.65;;
12878;SDS011;20617;49.476;10.986;2023-07-09T04:28:18;12.60;;;7.53;;
12878;SDS011;20617;49.476;10.986;2023-07-09T04:30:26;9.65;;;6.72;;
12878;SDS011;20617;49.476;10.986;2023-07-09T04:32:33;8.95;;;6.75;;
12878;SDS011;20617;49.476;10.986;2023-07-09T04:36:43;10.60;;;7.13;;
12878;SDS011;20617;49.476;10.986;2023-07-09T04:38:48;8.00;;;6.93;;
12878;SDS011;20617;49.476;10.986;2023-07-09T04:43:00;10.35;;;7.35;;
12878;SDS011;20617;49.476;10.986;2023-07-09T04:45:06;8.73;;;6.75;;
12878;SDS011;20617;49.476;10.986;2023-07-09T04:47:13;10.18;;;6.55;;
12878;SDS011;20617;49.476;10.986;2023-07-09T04:49:18;8.98;;;6.63;;
12878;SDS011;20617;49.476;10.986;2023-07-09T04:51:23;7.65;;;6.70;;
12878;SDS011;20617;49.476;10.986;2023-07-09T04:53:31;8.00;;;7.18;;
12878;SDS011;20617;49.476;10.986;2023-07-09T04:55:36;9.77;;;7.95;;
12878;SDS011;20617;49.476;10.986;2023-07-09T04:57:41;8.55;;;7.60;;
12878;SDS011;20617;49.476;10.986;2023-07-09T04:59:49;11.23;;;7.05;;
12878;SDS011;20617;49.476;10.986;2023-07-09T05:01:54;10.20;;;6.60;;
12878;SDS011;20617;49.476;10.986;2023-07-09T05:04:00;7.78;;;6.63;;
12878;SDS011;20617;49.476;10.986;2023-07-09T05:06:05;7.57;;;6.50;;
12878;SDS011;20617;49.476;10.986;2023-07-09T05:10:15;9.10;;;6.85;;
12878;SDS011;20617;49.476;10.986;2023-07-09T05:12:25;7.70;;;6.20;;
12878;SDS011;20617;49.476;10.986;2023-07-09T05:14:31;7.57;;;6.45;;
12878;SDS011;20617;49.476;10.986;2023-07-09T05:16:39;9.38;;;7.18;;
12878;SDS011;20617;49.476;10.986;2023-07-09T05:18:44;11.50;;;7.35;;
12878;SDS011;20617;49.476;10.986;2023-07-09T05:20:50;7.60;;;6.82;;
12878;SDS011;20617;49.476;10.986;2023-07-09T05:24:57;8.85;;;7.53;;
12878;SDS011;20617;49.476;10.986;2023-07-09T05:29:07;9.00;;;6.97;;
12878;SDS011;20617;49.476;10.986;2023-07-09T05:31:12;12.63;;;6.97;;
12878;SDS011;20617;49.476;10.986;2023-07-09T05:33:19;10.52;;;6.22;;
12878;SDS011;20617;49.476;10.986;2023-07-09T05:35:27;9.20;;;7.10;;
12878;SDS011;20617;49.476;10.986;2023-07-09T05:37:32;8.23;;;6.38;;
12878;SDS011;20617;49.476;10.986;2023-07-09T05:39:37;8.52;;;7.00;;
12878;SDS011;20617;49.476;10.986;2023-07-09T05:41:42;7.82;;;6.70;;
12878;SDS011;20617;49.476;10.986;2023-07-09T05:45:54;8.52;;;5.90;;
12878;SDS011;20617;49.476;10.986;2023-07-09T05:48:00;7.15;;;5.65;;
12878;SDS011;20617;49.476;10.986;2023-07-09T05:50:09;8.48;;;6.20;;
12878;SDS011;20617;49.476;10.986;2023-07-09T05:52:15;10.73;;;7.68;;
12878;SDS011;20617;49.476;10.986;2023-07-09T05:56:27;9.38;;;6.32;;
12878;SDS011;20617;49.476;10.986;2023-07-09T05:58:32;7.45;;;6.40;;
12878;SDS011;20617;49.476;10.986;2023-07-09T06:00:35;7.18;;;6.22;;
12878;SDS011;20617;49.476;10.986;2023-07-09T06:02:43;8.30;;;6.85;;
12878;SDS011;20617;49.476;10.986;2023-07-09T06:04:50;7.78;;;6.38;;
12878;SDS011;20617;49.476;10.986;2023-07-09T06:07:00;7.43;;;6.45;;
12878;SDS011;20617;49.476;10.986;2023-07-09T06:09:05;8.40;;;7.05;;
12878;SDS011;20617;49.476;10.986;2023-07-09T06:11:10;8.10;;;6.88;;
12878;SDS011;20617;49.476;10.986;2023-07-09T06:13:15;6.40;;;5.80;;
12878;SDS011;20617;49.476;10.986;2023-07-09T06:15:22;7.25;;;6.45;;
12878;SDS011;20617;49.476;10.986;2023-07-09T06:17:28;9.50;;;6.72;;
12878;SDS011;20617;49.476;10.986;2023-07-09T06:21:38;9.02;;;6.20;;
12878;SDS011;20617;49.476;10.986;2023-07-09T06:23:47;7.63;;;6.00;;
12878;SDS011;20617;49.476;10.986;2023-07-09T06:25:52;7.05;;;5.82;;
12878;SDS011;20617;49.476;10.986;2023-07-09T06:27:57;7.05;;;6.03;;
12878;SDS011;20617;49.476;10.986;2023-07-09T06:30:05;7.28;;;6.22;;
12878;SDS011;20617;49.476;10.986;2023-07-09T06:32:12;8.38;;;6.20;;
12878;SDS011;20617;49.476;10.986;2023-07-09T06:36:22;7.97;;;5.95;;
12878;SDS011;20617;49.476;10.986;2023-07-09T06:38:28;6.80;;;6.10;;
12878;SDS011;20617;49.476;10.986;2023-07-09T06:40:36;7.45;;;5.78;;
12878;SDS011;20617;49.476;10.986;2023-07-09T06:42:41;8.40;;;6.40;;
12878;SDS011;20617;49.476;10.986;2023-07-09T06:44:59;10.30;;;5.90;;
12878;SDS011;20617;49.476;10.986;2023-07-09T06:47:06;7.38;;;5.72;;
12878;SDS011;20617;49.476;10.986;2023-07-09T06:49:11;8.32;;;5.65;;
12878;SDS011;20617;49.476;10.986;2023-07-09T06:53:23;10.10;;;6.20;;
12878;SDS011;20617;49.476;10.986;2023-07-09T06:55:30;6.68;;;5.38;;
12878;SDS011;20617;49.476;10.986;2023-07-09T06:57:38;8.15;;;5.70;;
12878;SDS011;20617;49.476;10.986;2023-07-09T06:59:43;8.00;;;5.95;;
12878;SDS011;20617;49.476;10.986;2023-07-09T07:01:49;6.80;;;6.10;;
12878;SDS011;20617;49.476;10.986;2023-07-09T07:03:54;6.68;;;5.55;;
12878;SDS011;20617;49.476;10.986;2023-07-09T07:06:02;7.00;;;5.78;;
12878;SDS011;20617;49.476;10.986;2023-07-09T07:08:09;6.43;;;5.20;;
12878;SDS011;20617;49.476;10.986;2023-07-09T07:12:25;6.40;;;4.75;;
12878;SDS011;20617;49.476;10.986;2023-07-09T07:14:34;6.65;;;5.93;;
12878;SDS011;20617;49.476;10.986;2023-07-09T07:16:37;5.78;;;5.10;;
12878;SDS011;20617;49.476;10.986;2023-07-09T07:20:46;7.65;;;5.70;;
12878;SDS011;20617;49.476;10.986;2023-07-09T07:22:54;7.13;;;5.13;;
12878;SDS011;20617;49.476;10.986;2023-07-09T07:27:04;7.75;;;5.72;;
12878;SDS011;20617;49.476;10.986;2023-07-09T07:29:09;7.72;;;5.05;;
12878;SDS011;20617;49.476;10.986;2023-07-09T07:33:22;6.47;;;4.95;;
12878;SDS011;20617;49.476;10.986;2023-07-09T07:35:27;6.03;;;5.28;;
12878;SDS011;20617;49.476;10.986;2023-07-09T07:37:32;5.78;;;4.78;;
12878;SDS011;20617;49.476;10.986;2023-07-09T07:39:34;6.85;;;5.57;;
12878;SDS011;20617;49.476;10.986;2023-07-09T07:41:39;5.03;;;4.53;;
12878;SDS011;20617;49.476;10.986;2023-07-09T07:43:44;7.05;;;4.53;;
12878;SDS011;20617;49.476;10.986;2023-07-09T07:45:49;6.18;;;5.28;;
12878;SDS011;20617;49.476;10.986;2023-07-09T07:47:57;6.13;;;4.80;;
12878;SDS011;20617;49.476;10.986;2023-07-09T07:50:02;8.68;;;5.55;;
12878;SDS011;20617;49.476;10.986;2023-07-09T07:52:07;6.45;;;4.72;;
12878;SDS011;20617;49.476;10.986;2023-07-09T07:54:12;7.20;;;4.95;;
12878;SDS011;20617;49.476;10.986;2023-07-09T07:56:20;6.50;;;5.57;;
12878;SDS011;20617;49.476;10.986;2023-07-09T07:58:27;6.35;;;5.18;;
12878;SDS011;20617;49.476;10.986;2023-07-09T08:00:34;7.05;;;5.43;;
12878;SDS011;20617;49.476;10.986;2023-07-09T08:02:42;6.93;;;4.60;;
12878;SDS011;20617;49.476;10.986;2023-07-09T08:04:49;6.40;;;4.75;;
12878;SDS011;20617;49.476;10.986;2023-07-09T08:06:54;6.88;;;4.60;;
12878;SDS011;20617;49.476;10.986;2023-07-09T08:09:00;5.28;;;4.05;;
12878;SDS011;20617;49.476;10.986;2023-07-09T08:11:06;7.30;;;4.82;;
12878;SDS011;20617;49.476;10.986;2023-07-09T08:13:11;5.40;;;4.35;;
12878;SDS011;20617;49.476;10.986;2023-07-09T08:15:17;4.80;;;4.30;;
12878;SDS011;20617;49.476;10.986;2023-07-09T08:17:22;4.72;;;4.10;;
12878;SDS011;20617;49.476;10.986;2023-07-09T08:19:28;6.22;;;4.97;;
12878;SDS011;20617;49.476;10.986;2023-07-09T08:21:35;7.57;;;4.20;;
12878;SDS011;20617;49.476;10.986;2023-07-09T08:23:40;6.70;;;4.35;;
12878;SDS011;20617;49.476;10.986;2023-07-09T08:25:51;5.80;;;4.18;;
12878;SDS011;20617;49.476;10.986;2023-07-09T08:28:03;5.75;;;4.18;;
12878;SDS011;20617;49.476;10.986;2023-07-09T08:30:08;5.88;;;3.90;;
12878;SDS011;20617;49.476;10.986;2023-07-09T08:32:14;6.00;;;4.13;;
12878;SDS011;20617;49.476;10.986;2023-07-09T08:34:16;6.07;;;3.88;;
12878;SDS011;20617;49.476;10.986;2023-07-09T08:36:22;4.70;;;3.78;;
12878;SDS011;20617;49.476;10.986;2023-07-09T08:38:33;6.28;;;3.80;;
12878;SDS011;20617;49.476;10.986;2023-07-09T08:40:39;6.05;;;4.28;;
12878;SDS011;20617;49.476;10.986;2023-07-09T08:42:45;4.43;;;3.53;;
12878;SDS011;20617;49.476;10.986;2023-07-09T08:45:10;4.63;;;3.90;;
12878;SDS011;20617;49.476;10.986;2023-07-09T08:47:27;5.68;;;3.30;;
12878;SDS011;20617;49.476;10.986;2023-07-09T08:49:43;5.32;;;3.35;;
12878;SDS011;20617;49.476;10.986;2023-07-09T08:51:52;4.65;;;3.10;;
12878;SDS011;20617;49.476;10.986;2023-07-09T08:54:03;4.25;;;3.33;;
12878;SDS011;20617;49.476;10.986;2023-07-09T08:56:14;5.40;;;3.75;;
12878;SDS011;20617;49.476;10.986;2023-07-09T08:58:23;4.82;;;3.55;;
12878;SDS011;20617;49.476;10.986;2023-07-09T09:00:31;6.18;;;3.90;;
12878;SDS011;20617;49.476;10.986;2023-07-09T09:02:44;4.22;;;3.35;;
12878;SDS011;20617;49.476;10.986;2023-07-09T09:04:50;4.85;;;3.85;;
12878;SDS011;20617;49.476;10.986;2023-07-09T09:07:00;6.63;;;4.35;;
12878;SDS011;20617;49.476;10.986;2023-07-09T09:09:15;4.60;;;3.45;;
12878;SDS011;20617;49.476;10.986;2023-07-09T09:11:33;7.85;;;3.90;;
12878;SDS011;20617;49.476;10.986;2023-07-09T09:13:49;5.13;;;3.47;;
12878;SDS011;20617;49.476;10.986;2023-07-09T09:16:02;4.18;;;3.33;;
12878;SDS011;20617;49.476;10.986;2023-07-09T09:18:20;5.55;;;3.60;;
12878;SDS011;20617;49.476;10.986;2023-07-09T09:20:27;7.13;;;3.92;;
12878;SDS011;20617;49.476;10.986;2023-07-09T09:22:36;4.88;;;3.30;;
12878;SDS011;20617;49.476;10.986;2023-07-09T09:24:55;6.40;;;3.50;;
12878;SDS011;20617;49.476;10.986;2023-07-09T09:27:07;6.00;;;3.75;;
12878;SDS011;20617;49.476;10.986;2023-07-09T09:29:13;5.47;;;3.80;;
12878;SDS011;20617;49.476;10.986;2023-07-09T09:31:20;4.43;;;3.15;;
12878;SDS011;20617;49.476;10.986;2023-07-09T09:33:35;4.80;;;3.53;;
12878;SDS011;20617;49.476;10.986;2023-07-09T09:35:42;5.35;;;3.67;;
12878;SDS011;20617;49.476;10.986;2023-07-09T09:37:50;7.63;;;3.58;;
12878;SDS011;20617;49.476;10.986;2023-07-09T09:40:08;4.18;;;3.13;;
12878;SDS011;20617;49.476;10.986;2023-07-09T09:42:18;4.82;;;4.10;;
12878;SDS011;20617;49.476;10.986;2023-07-09T09:44:28;5.00;;;3.80;;
12878;SDS011;20617;49.476;10.986;2023-07-09T09:46:36;8.68;;;4.00;;
12878;SDS011;20617;49.476;10.986;2023-07-09T09:48:44;4.68;;;3.25;;
12878;SDS011;20617;49.476;10.986;2023-07-09T09:50:50;5.85;;;3.55;;
12878;SDS011;20617;49.476;10.986;2023-07-09T09:52:58;4.43;;;3.40;;
12878;SDS011;20617;49.476;10.986;2023-07-09T09:55:11;6.47;;;3.85;;
12878;SDS011;20617;49.476;10.986;2023-07-09T09:57:21;4.40;;;3.38;;
12878;SDS011;20617;49.476;10.986;2023-07-09T09:59:30;6.90;;;4.40;;
12878;SDS011;20617;49.476;10.986;2023-07-09T10:01:40;5.80;;;3.40;;
12878;SDS011;20617;49.476;10.986;2023-07-09T10:03:47;6.25;;;3.83;;
12878;SDS011;20617;49.476;10.986;2023-07-09T10:05:55;4.43;;;3.70;;
12878;SDS011;20617;49.476;10.986;2023-07-09T10:08:05;5.75;;;4.05;;
12878;SDS011;20617;49.476;10.986;2023-07-09T10:10:17;3.78;;;3.05;;
12878;SDS011;20617;49.476;10.986;2023-07-09T10:12:36;5.45;;;3.70;;
12878;SDS011;20617;49.476;10.986;2023-07-09T10:14:49;4.28;;;3.22;;
12878;SDS011;20617;49.476;10.986;2023-07-09T10:17:02;6.28;;;2.88;;
12878;SDS011;20617;49.476;10.986;2023-07-09T10:19:17;5.18;;;3.67;;
12878;SDS011;20617;49.476;10.986;2023-07-09T10:21:30;6.18;;;3.67;;
12878;SDS011;20617;49.476;10.986;2023-07-09T10:23:39;5.30;;;3.63;;
12878;SDS011;20617;49.476;10.986;2023-07-09T10:26:01;5.35;;;3.55;;
12878;SDS011;20617;49.476;10.986;2023-07-09T10:28:24;4.95;;;3.38;;
12878;SDS011;20617;49.476;10.986;2023-07-09T10:30:59;4.20;;;3.20;;
12878;SDS011;20617;49.476;10.986;2023-07-09T10:33:10;7.63;;;3.40;;
12878;SDS011;20617;49.476;10.986;2023-07-09T10:35:18;4.57;;;3.10;;
12878;SDS011;20617;49.476;10.986;2023-07-09T10:37:37;5.70;;;3.72;;
12878;SDS011;20617;49.476;10.986;2023-07-09T10:39:57;4.90;;;3.53;;
12878;SDS011;20617;49.476;10.986;2023-07-09T10:42:07;6.50;;;3.70;;
12878;SDS011;20617;49.476;10.986;2023-07-09T10:44:28;5.53;;;4.22;;
12878;SDS011;20617;49.476;10.986;2023-07-09T10:46:39;6.25;;;3.70;;
12878;SDS011;20617;49.476;10.986;2023-07-09T10:48:47;6.55;;;3.38;;
12878;SDS011;20617;49.476;10.986;2023-07-09T10:50:54;3.67;;;3.10;;
12878;SDS011;20617;49.476;10.986;2023-07-09T10:53:05;4.53;;;3.53;;
12878;SDS011;20617;49.476;10.986;2023-07-09T10:55:16;4.80;;;3.17;;
12878;SDS011;20617;49.476;10.986;2023-07-09T10:57:33;6.68;;;4.28;;
12878;SDS011;20617;49.476;10.986;2023-07-09T10:59:46;6.78;;;3.72;;
12878;SDS011;20617;49.476;10.986;2023-07-09T11:01:54;7.80;;;4.30;;
12878;SDS011;20617;49.476;10.986;2023-07-09T11:04:03;7.57;;;3.75;;
12878;SDS011;20617;49.476;10.986;2023-07-09T11:06:14;5.28;;;3.88;;
12878;SDS011;20617;49.476;10.986;2023-07-09T11:08:24;4.18;;;3.20;;
12878;SDS011;20617;49.476;10.986;2023-07-09T11:10:36;4.82;;;3.03;;
12878;SDS011;20617;49.476;10.986;2023-07-09T11:12:50;5.25;;;3.80;;
12878;SDS011;20617;49.476;10.986;2023-07-09T11:15:03;6.97;;;3.78;;
12878;SDS011;20617;49.476;10.986;2023-07-09T11:17:12;4.75;;;4.03;;
12878;SDS011;20617;49.476;10.986;2023-07-09T11:19:20;5.65;;;3.35;;
12878;SDS011;20617;49.476;10.986;2023-07-09T11:21:26;4.30;;;3.35;;
12878;SDS011;20617;49.476;10.986;2023-07-09T11:23:43;5.38;;;3.72;;
12878;SDS011;20617;49.476;10.986;2023-07-09T11:26:00;7.55;;;4.40;;
12878;SDS011;20617;49.476;10.986;2023-07-09T11:28:09;6.03;;;4.13;;
12878;SDS011;20617;49.476;10.986;2023-07-09T11:30:19;5.18;;;3.20;;
12878;SDS011;20617;49.476;10.986;2023-07-09T11:32:27;6.82;;;4.22;;
12878;SDS011;20617;49.476;10.986;2023-07-09T11:34:32;4.95;;;3.42;;
12878;SDS011;20617;49.476;10.986;2023-07-09T11:36:46;4.35;;;3.47;;
12878;SDS011;20617;49.476;10.986;2023-07-09T11:38:53;5.68;;;3.25;;
12878;SDS011;20617;49.476;10.986;2023-07-09T11:41:01;3.85;;;3.13;;
12878;SDS011;20617;49.476;10.986;2023-07-09T11:45:39;8.02;;;3.67;;
12878;SDS011;20617;49.476;10.986;2023-07-09T11:47:47;6.18;;;3.53;;
12878;SDS011;20617;49.476;10.986;2023-07-09T11:50:00;5.75;;;3.45;;
12878;SDS011;20617;49.476;10.986;2023-07-09T11:52:08;4.55;;;3.20;;
12878;SDS011;20617;49.476;10.986;2023-07-09T11:54:14;6.43;;;3.50;;
12878;SDS011;20617;49.476;10.986;2023-07-09T11:56:20;6.50;;;3.70;;
12878;SDS011;20617;49.476;10.986;2023-07-09T11:58:27;4.65;;;3.38;;
12878;SDS011;20617;49.476;10.986;2023-07-09T12:00:36;4.63;;;4.00;;
12878;SDS011;20617;49.476;10.986;2023-07-09T12:02:43;4.40;;;3.47;;
12878;SDS011;20617;49.476;10.986;2023-07-09T12:04:48;7.00;;;3.67;;
12878;SDS011;20617;49.476;10.986;2023-07-09T12:06:57;4.60;;;3.20;;
12878;SDS011;20617;49.476;10.986;2023-07-09T12:09:09;7.40;;;4.35;;
12878;SDS011;20617;49.476;10.986;2023-07-09T12:11:19;6.13;;;3.90;;
12878;SDS011;20617;49.476;10.986;2023-07-09T12:13:26;6.75;;;3.83;;
12878;SDS011;20617;49.476;10.986;2023-07-09T12:15:31;10.18;;;3.75;;
12878;SDS011;20617;49.476;10.986;2023-07-09T12:17:38;4.63;;;3.60;;
12878;SDS011;20617;49.476;10.986;2023-07-09T12:19:45;5.45;;;3.78;;
12878;SDS011;20617;49.476;10.986;2023-07-09T12:21:51;8.05;;;3.70;;
12878;SDS011;20617;49.476;10.986;2023-07-09T12:23:59;4.97;;;3.15;;
12878;SDS011;20617;49.476;10.986;2023-07-09T12:26:10;14.02;;;4.13;;
12878;SDS011;20617;49.476;10.986;2023-07-09T12:28:18;6.25;;;3.63;;
12878;SDS011;20617;49.476;10.986;2023-07-09T12:30:24;6.18;;;3.40;;
12878;SDS011;20617;49.476;10.986;2023-07-09T12:32:29;11.23;;;4.35;;
12878;SDS011;20617;49.476;10.986;2023-07-09T12:34:36;5.65;;;3.17;;
12878;SDS011;20617;49.476;10.986;2023-07-09T12:36:43;5.85;;;3.65;;
12878;SDS011;20617;49.476;10.986;2023-07-09T12:38:52;6.38;;;3.30;;
12878;SDS011;20617;49.476;10.986;2023-07-09T12:41:01;7.45;;;4.43;;
12878;SDS011;20617;49.476;10.986;2023-07-09T12:43:08;5.30;;;3.88;;
12878;SDS011;20617;49.476;10.986;2023-07-09T12:45:16;5.68;;;3.30;;
12878;SDS011;20617;49.476;10.986;2023-07-09T12:47:24;7.57;;;3.75;;
12878;SDS011;20617;49.476;10.986;2023-07-09T12:49:30;8.48;;;4.05;;
12878;SDS011;20617;49.476;10.986;2023-07-09T12:51:47;7.00;;;4.00;;
12878;SDS011;20617;49.476;10.986;2023-07-09T12:54:02;8.77;;;4.00;;
12878;SDS011;20617;49.476;10.986;2023-07-09T12:56:10;8.15;;;3.40;;
12878;SDS011;20617;49.476;10.986;2023-07-09T12:58:18;11.25;;;3.78;;
12878;SDS011;20617;49.476;10.986;2023-07-09T13:00:26;5.30;;;3.38;;
12878;SDS011;20617;49.476;10.986;2023-07-09T13:02:37;5.00;;;3.28;;
12878;SDS011;20617;49.476;10.986;2023-07-09T13:04:40;3.67;;;2.90;;
12878;SDS011;20617;49.476;10.986;2023-07-09T13:06:48;5.90;;;3.67;;
12878;SDS011;20617;49.476;10.986;2023-07-09T13:08:59;4.60;;;3.58;;
12878;SDS011;20617;49.476;10.986;2023-07-09T13:11:13;5.30;;;3.13;;
12878;SDS011;20617;49.476;10.986;2023-07-09T13:13:21;6.05;;;3.30;;
12878;SDS011;20617;49.476;10.986;2023-07-09T13:15:29;5.57;;;3.03;;
12878;SDS011;20617;49.476;10.986;2023-07-09T13:17:33;8.20;;;3.72;;
12878;SDS011;20617;49.476;10.986;2023-07-09T13:19:38;6.32;;;3.67;;
12878;SDS011;20617;49.476;10.986;2023-07-09T13:21:43;4.20;;;3.28;;
12878;SDS011;20617;49.476;10.986;2023-07-09T13:23:52;4.97;;;3.40;;
12878;SDS011;20617;49.476;10.986;2023-07-09T13:26:00;6.05;;;3.95;;
12878;SDS011;20617;49.476;10.986;2023-07-09T13:28:07;5.78;;;3.90;;
12878;SDS011;20617;49.476;10.986;2023-07-09T13:30:18;3.92;;;3.05;;
12878;SDS011;20617;49.476;10.986;2023-07-09T13:32:29;5.07;;;3.70;;
12878;SDS011;20617;49.476;10.986;2023-07-09T13:34:34;5.20;;;3.10;;
12878;SDS011;20617;49.476;10.986;2023-07-09T13:36:41;4.82;;;3.42;;
12878;SDS011;20617;49.476;10.986;2023-07-09T13:38:46;5.38;;;2.95;;